Time;durP1;ratioP1;P1;durP2;ratioP2;P2;SDS_P1;SDS_P2;PMS_P1;PMS_P2;Temp;Humidity;BMP_temperature;BMP_pressure;BME280_temperature;BME280_humidity;BME280_pressure;Samples;Min_cycle;Max_cycle;Signal;HPM_P1;HPM_P2
2023/05/02 00:00:44;;;;;;;10.27;6.43;;;;;;;-145.69;100.00;52491.91;5096189;28;20198;-79
2023/05/02 00:03:10;;;;;;;12.10;6.87;;;;;;;-145.69;100.00;52519.63;5095855;28;20208;-79
2023/05/02 00:05:37;;;;;;;12.80;7.00;;;;;;;-145.69;100.00;52523.59;5096251;28;20209;-79
2023/05/02 00:08:03;;;;;;;13.80;6.10;;;;;;;-145.69;100.00;52529.53;5095843;28;20533;-79
2023/05/02 00:10:30;;;;;;;16.73;6.50;;;;;;;-145.69;100.00;52523.59;5096089;28;20230;-80
2023/05/02 00:12:58;;;;;;;12.38;7.90;;;;;;;-145.69;100.00;52489.94;5094895;28;20531;-80
2023/05/02 00:15:26;;;;;;;10.60;6.40;;;;;;;-145.69;100.00;52555.28;5095401;28;20271;-80
2023/05/02 00:17:52;;;;;;;14.83;6.90;;;;;;;-145.69;100.00;52489.94;5095844;28;20212;-81
2023/05/02 00:20:19;;;;;;;10.30;6.27;;;;;;;-145.69;100.00;52505.78;5096005;28;20224;-80
2023/05/02 00:22:45;;;;;;;11.33;5.80;;;;;;;-145.69;100.00;52533.50;5095468;28;20649;-80
2023/05/02 00:25:15;;;;;;;12.03;7.17;;;;;;;-145.69;100.00;52525.59;5096070;28;20205;-81
2023/05/02 00:27:41;;;;;;;15.03;7.77;;;;;;;-145.69;100.00;52535.47;5095517;28;20202;-81
2023/05/02 00:30:10;;;;;;;15.00;7.03;;;;;;;-145.69;100.00;52507.75;5095499;28;20221;-81
2023/05/02 00:32:37;;;;;;;12.90;6.00;;;;;;;-145.69;100.00;52513.69;5095696;28;20217;-81
2023/05/02 00:35:03;;;;;;;10.63;6.40;;;;;;;-145.69;100.00;52531.53;5095148;28;20755;-81
2023/05/02 00:37:30;;;;;;;8.67;5.27;;;;;;;-145.69;100.00;52547.38;5095463;28;20569;-81
2023/05/02 00:39:56;;;;;;;14.53;5.77;;;;;;;-145.69;100.00;52527.56;5095506;28;20676;-80
2023/05/02 00:42:23;;;;;;;9.40;6.00;;;;;;;-145.69;100.00;52533.50;5094663;28;20653;-80
2023/05/02 00:44:49;;;;;;;13.33;6.40;;;;;;;-145.69;100.00;52495.88;5095231;28;20194;-80
2023/05/02 00:47:17;;;;;;;10.13;6.43;;;;;;;-145.69;100.00;52527.56;5095289;28;20680;-80
2023/05/02 00:49:44;;;;;;;11.63;6.60;;;;;;;-145.69;100.00;52511.72;5094882;28;20203;-80
2023/05/02 00:52:10;;;;;;;11.17;6.40;;;;;;;-145.69;100.00;52515.69;5094879;28;20217;-80
2023/05/02 00:54:38;;;;;;;11.57;6.60;;;;;;;-145.69;100.00;52511.72;5095212;28;20202;-79
2023/05/02 00:57:04;;;;;;;9.57;6.33;;;;;;;-145.69;100.00;52501.81;5095017;28;20244;-80
2023/05/02 00:59:31;;;;;;;10.77;6.80;;;;;;;-145.69;100.00;52563.22;5094996;28;20198;-79
2023/05/02 01:02:10;;;;;;;9.73;6.47;;;;;;;-145.69;100.00;52499.84;5094835;28;20216;-79
2023/05/02 01:04:50;;;;;;;12.10;6.37;;;;;;;-145.69;100.00;52501.81;5094372;28;20238;-79
2023/05/02 01:07:29;;;;;;;15.70;7.90;;;;;;;-145.69;100.00;52515.69;5094392;28;20198;-79
2023/05/02 01:10:08;;;;;;;11.57;6.93;;;;;;;-145.69;100.00;52547.38;5094498;28;20205;-79
2023/05/02 01:12:42;;;;;;;10.07;6.30;;;;;;;-145.69;100.00;52501.81;5094988;28;20563;-79
2023/05/02 01:15:12;;;;;;;10.73;6.27;;;;;;;-145.69;100.00;52489.94;5094802;28;20190;-80
2023/05/02 01:17:40;;;;;;;13.03;7.40;;;;;;;-145.69;100.00;52509.75;5094719;28;20284;-81
2023/05/02 01:20:13;;;;;;;14.73;8.27;;;;;;;-145.69;100.00;52505.78;5094486;28;20668;-80
2023/05/02 01:22:41;;;;;;;16.13;8.77;;;;;;;-145.69;100.00;52515.69;5094606;28;20194;-80
2023/05/02 01:25:18;;;;;;;15.30;8.73;;;;;;;-145.69;100.00;52507.75;5094513;28;20664;-80
2023/05/02 01:27:56;;;;;;;9.37;5.70;;;;;;;-145.69;100.00;52521.63;5094480;28;20193;-81
2023/05/02 01:30:27;;;;;;;8.97;5.90;;;;;;;-145.69;100.00;52491.91;5081145;28;20217;-80
2023/05/02 01:32:57;;;;;;;12.90;7.97;;;;;;;-145.69;100.00;52480.03;5094300;28;20203;-80
2023/05/02 01:35:26;;;;;;;12.57;6.77;;;;;;;-145.69;100.00;52448.34;5094940;28;20237;-81
2023/05/02 01:37:54;;;;;;;13.03;7.07;;;;;;;-145.69;100.00;52497.84;5093015;28;20288;-81
2023/05/02 01:40:22;;;;;;;16.40;6.90;;;;;;;-145.69;100.00;52511.72;5091420;28;20205;-81
2023/05/02 01:42:51;;;;;;;9.83;5.47;;;;;;;-145.69;100.00;52495.88;5093932;28;20194;-81
2023/05/02 01:45:20;;;;;;;8.23;5.30;;;;;;;-145.69;100.00;52511.72;5093941;28;20197;-81
2023/05/02 01:47:50;;;;;;;7.53;5.43;;;;;;;-145.69;100.00;52513.69;5094505;28;20199;-81
2023/05/02 01:50:20;;;;;;;12.47;6.27;;;;;;;-145.69;100.00;52515.69;5094201;28;20261;-80
2023/05/02 01:52:48;;;;;;;9.03;5.67;;;;;;;-145.69;100.00;52491.91;5093957;28;20217;-80
2023/05/02 01:55:17;;;;;;;10.13;6.50;;;;;;;-145.69;100.00;52499.84;5093628;28;20243;-80
2023/05/02 01:57:46;;;;;;;11.53;6.53;;;;;;;-145.69;100.00;52527.56;5093602;28;20206;-81
2023/05/02 02:00:16;;;;;;;9.70;5.97;;;;;;;-145.69;100.00;52527.56;5092752;27;20197;-80
2023/05/02 02:02:44;;;;;;;11.93;6.87;;;;;;;-145.69;100.00;52489.94;5094071;28;20194;-80
2023/05/02 02:05:13;;;;;;;11.73;7.13;;;;;;;-145.69;100.00;52531.53;5093469;28;20234;-81
2023/05/02 02:07:40;;;;;;;10.27;6.67;;;;;;;-145.69;100.00;52478.06;5093810;28;20209;-81
2023/05/02 02:10:08;;;;;;;11.00;6.90;;;;;;;-145.69;100.00;52507.75;5093520;28;20205;-80
2023/05/02 02:12:39;;;;;;;10.20;6.37;;;;;;;-145.69;100.00;52503.81;5093500;28;20200;-81
2023/05/02 02:15:13;;;;;;;12.90;7.70;;;;;;;-145.69;100.00;52476.06;5093924;28;20198;-80
2023/05/02 02:17:43;;;;;;;16.97;9.43;;;;;;;-145.69;100.00;52487.97;5093435;28;20228;-82
2023/05/02 02:20:13;;;;;;;16.13;9.33;;;;;;;-145.69;100.00;52519.63;5093188;28;20198;-81
2023/05/02 02:22:43;;;;;;;17.43;10.13;;;;;;;-145.69;100.00;52505.78;5093435;28;20193;-80
2023/05/02 02:25:11;;;;;;;18.03;9.77;;;;;;;-145.69;100.00;52505.78;5093542;28;20526;-80
2023/05/02 02:27:38;;;;;;;13.73;8.43;;;;;;;-145.69;100.00;52507.75;5093617;28;20198;-80
2023/05/02 02:30:07;;;;;;;15.83;8.13;;;;;;;-145.69;100.00;52521.63;5093147;28;20195;-80
2023/05/02 02:32:33;;;;;;;10.67;7.13;;;;;;;-145.69;100.00;52505.78;5092912;28;20198;-80
2023/05/02 02:35:01;;;;;;;17.30;9.90;;;;;;;-145.69;100.00;52503.81;5093270;28;20198;-79
2023/05/02 02:37:32;;;;;;;16.03;9.33;;;;;;;-145.69;100.00;52523.59;5092968;28;20285;-81
2023/05/02 02:40:09;;;;;;;13.80;8.27;;;;;;;-145.69;100.00;52507.75;5093521;28;20201;-82
2023/05/02 02:42:41;;;;;;;14.43;7.63;;;;;;;-145.69;100.00;52525.59;5093105;28;20550;-81
2023/05/02 02:45:18;;;;;;;9.53;5.70;;;;;;;-145.69;100.00;52485.97;5093101;28;20198;-81
2023/05/02 02:47:50;;;;;;;13.33;7.97;;;;;;;-145.69;100.00;52505.78;5093089;28;20225;-82
2023/05/02 02:50:23;;;;;;;16.67;9.03;;;;;;;-145.69;100.00;52499.84;5092591;28;20657;-82
2023/05/02 02:52:55;;;;;;;12.10;7.73;;;;;;;-145.69;100.00;52501.81;5092961;28;20198;-81
2023/05/02 02:55:32;;;;;;;12.97;7.93;;;;;;;-145.69;100.00;52478.06;5093130;28;20202;-81
2023/05/02 02:58:03;;;;;;;11.90;7.10;;;;;;;-145.69;100.00;52503.81;5092860;28;20204;-81
2023/05/02 03:00:32;;;;;;;15.33;8.43;;;;;;;-145.69;100.00;52525.59;5093163;28;20198;-81
2023/05/02 03:02:58;;;;;;;15.47;8.50;;;;;;;-145.69;100.00;52541.44;5092607;28;20194;-81
2023/05/02 03:05:25;;;;;;;17.10;8.80;;;;;;;-145.69;100.00;52523.59;5092769;28;20700;-81
2023/05/02 03:07:53;;;;;;;16.47;9.77;;;;;;;-145.69;100.00;52511.72;5092982;28;20209;-81
2023/05/02 03:10:22;;;;;;;17.43;9.80;;;;;;;-145.69;100.00;52519.63;5092337;28;20202;-82
2023/05/02 03:12:48;;;;;;;18.73;10.53;;;;;;;-145.69;100.00;52491.91;5098281;28;20220;-81
2023/05/02 03:15:28;;;;;;;18.93;10.77;;;;;;;-145.69;100.00;52547.38;5098756;28;20548;-81
2023/05/02 03:17:55;;;;;;;21.83;11.23;;;;;;;-145.69;100.00;52539.44;5099826;28;20197;-82
2023/05/02 03:20:22;;;;;;;24.47;12.03;;;;;;;-145.69;100.00;52489.94;5099784;28;20225;-81
2023/05/02 03:22:48;;;;;;;24.00;12.27;;;;;;;-145.69;100.00;52517.66;5099213;28;20223;-82
2023/05/02 03:25:16;;;;;;;29.57;13.83;;;;;;;-145.69;100.00;52511.72;5099390;28;20198;-82
2023/05/02 03:27:43;;;;;;;30.03;15.73;;;;;;;-145.69;100.00;52519.63;5099955;28;20255;-82
2023/05/02 03:30:10;;;;;;;29.83;14.63;;;;;;;-145.69;100.00;52517.66;5088587;28;20202;-82
2023/05/02 03:32:36;;;;;;;22.97;11.60;;;;;;;-145.69;100.00;52491.91;5099347;28;20704;-82
2023/05/02 03:35:03;;;;;;;22.27;10.77;;;;;;;-145.69;100.00;52491.91;5099243;28;20201;-82
2023/05/02 03:37:29;;;;;;;25.83;12.77;;;;;;;-145.69;100.00;52487.97;5098853;28;20240;-83
2023/05/02 03:39:56;;;;;;;22.63;13.03;;;;;;;-145.69;100.00;52489.94;5099296;28;20703;-82
2023/05/02 03:42:24;;;;;;;24.47;12.20;;;;;;;-145.69;100.00;52495.88;5099486;28;20208;-82
2023/05/02 03:44:52;;;;;;;16.43;8.63;;;;;;;-145.69;100.00;52527.56;5098947;28;20190;-83
2023/05/02 03:47:19;;;;;;;16.97;8.50;;;;;;;-145.69;100.00;52515.69;5099349;28;20205;-82
2023/05/02 03:49:45;;;;;;;21.20;9.40;;;;;;;-145.69;100.00;52523.59;5098929;28;20259;-83
2023/05/02 03:52:12;;;;;;;18.67;10.63;;;;;;;-145.69;100.00;52519.63;5098956;28;20233;-83
2023/05/02 03:54:39;;;;;;;18.97;10.93;;;;;;;-145.69;100.00;52515.69;5098897;28;20201;-83
2023/05/02 03:57:05;;;;;;;18.63;9.63;;;;;;;-145.69;100.00;52519.63;5099337;28;20683;-83
2023/05/02 03:59:34;;;;;;;15.60;8.90;;;;;;;-145.69;100.00;52497.84;5098842;28;20197;-82
2023/05/02 04:02:01;;;;;;;19.23;10.60;;;;;;;-145.69;100.00;52515.69;5099195;28;20648;-82
2023/05/02 04:04:27;;;;;;;25.77;13.37;;;;;;;-145.69;100.00;52531.53;5098736;28;20234;-81
2023/05/02 04:06:54;;;;;;;27.83;14.03;;;;;;;-145.69;100.00;52497.84;5099017;28;20221;-83
2023/05/02 04:09:23;;;;;;;32.93;16.60;;;;;;;-145.69;100.00;52525.59;5099338;28;20194;-83
2023/05/02 04:11:50;;;;;;;28.80;15.30;;;;;;;-145.69;100.00;52511.72;5099119;28;20249;-83
2023/05/02 04:14:17;;;;;;;20.27;11.63;;;;;;;-145.69;100.00;52527.56;5098445;28;20201;-85
2023/05/02 04:16:49;;;;;;;21.17;11.97;;;;;;;-145.69;100.00;52521.63;5097608;28;20195;-84
2023/05/02 04:19:17;;;;;;;32.33;17.17;;;;;;;-145.69;100.00;52507.75;5099171;28;20209;-84
2023/05/02 04:21:44;;;;;;;27.37;14.83;;;;;;;-145.69;100.00;52484.00;5099042;28;20679;-84
2023/05/02 04:24:11;;;;;;;24.53;14.23;;;;;;;-145.69;100.00;52529.53;5094850;28;20209;-83
2023/05/02 04:26:37;;;;;;;28.13;15.87;;;;;;;-145.69;100.00;52543.41;5095660;28;20288;-83
2023/05/02 04:29:04;;;;;;;31.43;16.13;;;;;;;-145.69;100.00;52468.16;5095897;28;20299;-84
2023/05/02 04:31:31;;;;;;;33.10;16.13;;;;;;;-145.69;100.00;52476.06;5095753;28;20600;-84
2023/05/02 04:33:59;;;;;;;30.47;16.13;;;;;;;-145.69;100.00;52491.91;5095879;28;20198;-85
2023/05/02 04:36:27;;;;;;;24.23;14.17;;;;;;;-145.69;100.00;52537.47;5095746;28;20202;-85
2023/05/02 04:38:53;;;;;;;27.25;15.05;;;;;;;-145.69;100.00;52507.75;5095887;28;20490;-83
2023/05/02 04:41:20;;;;;;;28.90;14.93;;;;;;;-145.69;100.00;52529.53;5095143;28;20205;-83
2023/05/02 04:43:46;;;;;;;24.03;13.50;;;;;;;-145.69;100.00;52484.00;5095282;28;20653;-83
2023/05/02 04:46:13;;;;;;;23.90;13.90;;;;;;;-145.69;100.00;52507.75;5095476;28;20203;-83
2023/05/02 04:48:41;;;;;;;23.57;13.67;;;;;;;-145.69;100.00;52503.81;5095198;28;20195;-83
2023/05/02 04:51:09;;;;;;;25.67;13.60;;;;;;;-145.69;100.00;52507.75;5095101;28;20256;-83
2023/05/02 04:53:35;;;;;;;25.90;13.40;;;;;;;-145.69;100.00;52515.69;5095173;28;20209;-83
2023/05/02 04:56:02;;;;;;;22.57;12.90;;;;;;;-145.69;100.00;52484.00;5095056;28;20205;-83
2023/05/02 04:58:28;;;;;;;21.00;12.17;;;;;;;-145.69;100.00;52480.03;5095029;28;20675;-83
2023/05/02 05:00:55;;;;;;;23.40;11.57;;;;;;;-145.69;100.00;52525.59;5095133;28;20204;-83
2023/05/02 05:03:22;;;;;;;20.17;11.37;;;;;;;-145.69;100.00;52511.72;5095009;28;20202;-83
2023/05/02 05:05:48;;;;;;;18.83;11.30;;;;;;;-145.69;100.00;52487.97;5095037;28;20198;-83
2023/05/02 05:08:16;;;;;;;19.60;11.10;;;;;;;-145.69;100.00;52515.69;5094985;28;20199;-83
2023/05/02 05:10:42;;;;;;;19.80;10.80;;;;;;;-145.69;100.00;52511.72;5095137;28;20202;-83
2023/05/02 05:13:11;;;;;;;17.40;10.30;;;;;;;-145.69;100.00;52519.63;5094591;28;20225;-82
2023/05/02 05:15:37;;;;;;;16.37;10.67;;;;;;;-145.69;100.00;52482.00;5094292;28;20221;-83
2023/05/02 05:18:04;;;;;;;18.77;11.40;;;;;;;-145.69;100.00;52487.97;5094900;28;20194;-82
2023/05/02 05:20:30;;;;;;;16.80;9.47;;;;;;;-145.69;100.00;52499.84;5094380;28;20210;-83
2023/05/02 05:22:57;;;;;;;18.90;11.40;;;;;;;-145.69;100.00;52541.44;5094596;28;20202;-83
2023/05/02 05:25:25;;;;;;;21.45;12.50;;;;;;;-145.69;100.00;52509.75;5093537;28;20444;-83
2023/05/02 05:27:52;;;;;;;17.37;11.23;;;;;;;-145.69;100.00;52535.47;5094458;28;20206;-83
2023/05/02 05:30:18;;;;;;;16.90;10.23;;;;;;;-145.69;100.00;52499.84;5094599;28;20198;-83
2023/05/02 05:32:45;;;;;;;18.43;8.77;;;;;;;-145.69;100.00;52507.75;5092836;28;20230;-83
2023/05/02 05:35:12;;;;;;;13.70;8.63;;;;;;;-145.69;100.00;52535.47;5077267;28;20187;-82
2023/05/02 05:37:38;;;;;;;17.73;9.43;;;;;;;-145.69;100.00;52480.03;5094518;28;20249;-83
2023/05/02 05:40:06;;;;;;;14.60;8.77;;;;;;;-145.69;100.00;52501.81;5094479;28;20198;-83
2023/05/02 05:42:34;;;;;;;16.30;8.90;;;;;;;-145.69;100.00;52484.00;5094465;28;20194;-82
2023/05/02 05:45:01;;;;;;;11.80;8.47;;;;;;;-145.69;100.00;52515.69;5093336;28;20546;-82
2023/05/02 05:47:28;;;;;;;13.33;8.60;;;;;;;-145.69;100.00;52495.88;5094507;28;20259;-83
2023/05/02 05:49:55;;;;;;;18.00;9.17;;;;;;;-145.69;100.00;52505.78;5094220;28;20210;-83
2023/05/02 05:52:21;;;;;;;17.10;9.87;;;;;;;-145.69;100.00;52507.75;5093914;28;20692;-83
2023/05/02 05:54:48;;;;;;;17.60;9.67;;;;;;;-145.69;100.00;52491.91;5093803;28;20328;-83
2023/05/02 05:57:14;;;;;;;16.97;9.70;;;;;;;-145.69;100.00;52499.84;5094056;28;20205;-83
2023/05/02 05:59:42;;;;;;;14.60;9.40;;;;;;;-145.69;100.00;52482.00;5094379;28;20213;-83
2023/05/02 06:02:08;;;;;;;21.67;9.93;;;;;;;-145.69;100.00;52499.84;5093590;28;20209;-82
2023/05/02 06:04:35;;;;;;;14.97;9.37;;;;;;;-145.69;100.00;52517.66;5093922;28;20700;-83
2023/05/02 06:07:01;;;;;;;16.83;9.37;;;;;;;-145.69;100.00;52497.84;5094032;28;20194;-83
2023/05/02 06:09:28;;;;;;;15.87;9.73;;;;;;;-145.69;100.00;52503.81;5093404;28;20197;-84
2023/05/02 06:11:54;;;;;;;13.70;9.10;;;;;;;-145.69;100.00;52495.88;5092769;28;20218;-83
2023/05/02 06:14:21;;;;;;;13.73;8.77;;;;;;;-145.69;100.00;52484.00;5093104;28;20190;-83
2023/05/02 06:16:48;;;;;;;15.57;8.47;;;;;;;-145.69;100.00;52470.13;5093662;28;20200;-83
2023/05/02 06:19:15;;;;;;;15.47;8.77;;;;;;;-145.69;100.00;52495.88;5093764;28;20198;-83
2023/05/02 06:21:41;;;;;;;12.40;7.67;;;;;;;-145.69;100.00;52470.13;5093315;28;20557;-83
2023/05/02 06:24:08;;;;;;;11.30;7.20;;;;;;;-145.69;100.00;52487.97;5093535;28;20206;-82
2023/05/02 06:26:34;;;;;;;11.60;7.30;;;;;;;-145.69;100.00;52495.88;5093492;28;20197;-83
2023/05/02 06:29:01;;;;;;;9.37;6.53;;;;;;;-145.69;100.00;52476.06;5093882;28;20209;-82
2023/05/02 06:31:27;;;;;;;14.23;7.47;;;;;;;-145.69;100.00;52501.81;5092972;28;20194;-83
2023/05/02 06:33:55;;;;;;;12.97;7.53;;;;;;;-145.69;100.00;52478.06;5093045;28;20667;-84
2023/05/02 06:36:22;;;;;;;12.67;6.20;;;;;;;-145.69;100.00;52503.81;5093762;28;20205;-83
2023/05/02 06:38:48;;;;;;;11.07;7.20;;;;;;;-145.69;100.00;52424.59;5092891;28;20213;-83
2023/05/02 06:41:15;;;;;;;9.55;6.28;;;;;;;-145.69;100.00;52460.22;5093449;28;20517;-83
2023/05/02 06:43:41;;;;;;;10.23;7.20;;;;;;;-145.69;100.00;52499.84;5092286;28;20431;-82
2023/05/02 06:46:08;;;;;;;9.23;6.53;;;;;;;-145.69;100.00;52460.22;5093013;28;20194;-83
2023/05/02 06:48:35;;;;;;;10.75;6.88;;;;;;;-145.69;100.00;52472.13;5093109;28;20248;-83
2023/05/02 06:51:03;;;;;;;10.63;6.63;;;;;;;-145.69;100.00;52503.81;5092959;28;20213;-83
2023/05/02 06:53:30;;;;;;;9.77;6.53;;;;;;;-145.69;100.00;52470.13;5092374;28;20256;-82
2023/05/02 06:55:56;;;;;;;8.23;5.32;;;;;;;-145.69;100.00;52468.16;5093136;28;20202;-81
2023/05/02 06:58:23;;;;;;;8.90;5.78;;;;;;;-145.69;100.00;52466.16;5093034;28;20656;-82
2023/05/02 07:00:50;;;;;;;7.85;5.65;;;;;;;-145.69;100.00;52466.16;5093104;28;20198;-82
2023/05/02 07:03:16;;;;;;;9.50;6.30;;;;;;;-145.69;100.00;52482.00;5092197;28;20194;-81
2023/05/02 07:05:43;;;;;;;17.60;6.38;;;;;;;-145.69;100.00;52476.06;5092433;28;20206;-82
2023/05/02 07:08:10;;;;;;;12.07;7.30;;;;;;;-145.69;100.00;52499.84;5092780;28;20194;-82
2023/05/02 07:10:37;;;;;;;14.70;6.95;;;;;;;-145.69;100.00;52485.97;5092716;28;20190;-81
2023/05/02 07:13:03;;;;;;;10.65;7.10;;;;;;;-145.69;100.00;52466.16;5092728;28;20222;-82
2023/05/02 07:15:30;;;;;;;9.80;6.70;;;;;;;-145.69;100.00;52460.22;5092419;28;20201;-81
2023/05/02 07:17:56;;;;;;;9.48;6.30;;;;;;;-145.69;100.00;52444.38;5092628;28;20205;-79
2023/05/02 07:20:23;;;;;;;9.23;6.47;;;;;;;-145.69;100.00;52476.06;5092535;28;20206;-80
2023/05/02 07:22:49;;;;;;;12.98;6.65;;;;;;;-145.69;100.00;52480.03;5091794;28;20205;-80
2023/05/02 07:25:17;;;;;;;10.82;6.75;;;;;;;-145.69;100.00;52476.06;5092891;28;20197;-79
2023/05/02 07:27:44;;;;;;;11.90;7.10;;;;;;;-145.69;100.00;52468.16;5092875;28;20205;-79
2023/05/02 07:30:11;;;;;;;10.88;7.00;;;;;;;-145.69;100.00;52480.03;5092464;28;20228;-81
2023/05/02 07:32:38;;;;;;;12.77;7.05;;;;;;;-145.69;100.00;52470.13;5092508;28;20222;-82
2023/05/02 07:35:05;;;;;;;11.87;7.70;;;;;;;-145.69;100.00;52468.16;5092022;28;20194;-83
2023/05/02 07:37:33;;;;;;;12.10;7.30;;;;;;;-145.69;100.00;52464.19;5081258;28;20233;-82
2023/05/02 07:40:00;;;;;;;13.38;7.97;;;;;;;-145.69;100.00;52466.16;5072405;28;20206;-82
2023/05/02 07:42:30;;;;;;;12.50;7.95;;;;;;;-145.69;100.00;52472.13;5082965;28;20194;-80
2023/05/02 07:44:56;;;;;;;13.33;8.93;;;;;;;-145.69;100.00;52460.22;5092569;28;20202;-80
2023/05/02 07:47:23;;;;;;;14.23;9.35;;;;;;;-145.69;100.00;52476.06;5092463;28;20202;-77
2023/05/02 07:49:51;;;;;;;12.57;8.90;;;;;;;-145.69;100.00;52452.31;5092495;28;20202;-81
2023/05/02 07:52:17;;;;;;;11.15;7.53;;;;;;;-145.69;100.00;52478.06;5092637;28;20312;-82
2023/05/02 07:54:44;;;;;;;10.77;7.03;;;;;;;-145.69;100.00;52440.44;5092597;28;20220;-83
2023/05/02 07:57:12;;;;;;;10.68;7.70;;;;;;;-145.69;100.00;52434.47;5092259;28;20608;-82
2023/05/02 07:59:39;;;;;;;12.98;7.60;;;;;;;-145.69;100.00;52456.28;5096096;28;20206;-84
2023/05/02 08:02:06;;;;;;;11.63;7.22;;;;;;;-145.69;100.00;52460.22;5096455;28;20671;-84
2023/05/02 08:04:33;;;;;;;13.25;8.15;;;;;;;-145.69;100.00;52440.44;5095720;28;20214;-84
2023/05/02 08:07:00;;;;;;;11.63;7.28;;;;;;;-145.69;100.00;52400.81;5096215;28;20205;-83
2023/05/02 08:09:26;;;;;;;11.15;7.13;;;;;;;-145.69;100.00;52400.81;5096514;28;20198;-84
2023/05/02 08:11:53;;;;;;;12.63;8.50;;;;;;;-145.69;100.00;52390.91;5096385;28;20198;-80
2023/05/02 08:14:19;;;;;;;17.27;10.85;;;;;;;-145.69;100.00;52404.78;5095680;28;20230;-82
2023/05/02 08:16:47;;;;;;;22.58;12.90;;;;;;;-145.69;100.00;52452.31;5096018;28;20274;-82
2023/05/02 08:19:16;;;;;;;26.00;15.20;;;;;;;-145.69;100.00;52450.31;5094787;28;20432;-80
2023/05/02 08:21:42;;;;;;;26.00;14.65;;;;;;;-145.69;100.00;52410.72;5096109;28;20194;-79
2023/05/02 08:24:09;;;;;;;27.55;15.45;;;;;;;-145.69;100.00;52432.50;5095864;28;20258;-81
2023/05/02 08:26:35;;;;;;;26.33;14.88;;;;;;;-145.69;100.00;52428.53;5095917;28;20255;-79
2023/05/02 08:29:03;;;;;;;29.30;15.00;;;;;;;-145.69;100.00;52424.59;5095593;28;20198;-80
2023/05/02 08:31:30;;;;;;;24.63;14.93;;;;;;;-145.69;100.00;52428.53;5094907;28;20194;-82
2023/05/02 08:33:57;;;;;;;25.98;15.45;;;;;;;-145.69;100.00;52414.69;5095588;28;20218;-81
2023/05/02 08:36:25;;;;;;;25.25;14.07;;;;;;;-145.69;100.00;52426.56;5095777;28;20206;-81
2023/05/02 08:38:51;;;;;;;29.33;15.13;;;;;;;-145.69;100.00;52448.34;5095419;28;20198;-82
2023/05/02 08:41:19;;;;;;;25.90;15.05;;;;;;;-145.69;100.00;52416.66;5095276;28;20198;-79
2023/05/02 08:43:46;;;;;;;24.70;15.43;;;;;;;-145.69;100.00;52420.63;5094906;28;20667;-79
2023/05/02 08:46:15;;;;;;;25.33;15.02;;;;;;;-145.69;100.00;52452.31;5095211;28;20194;-81
2023/05/02 08:48:43;;;;;;;25.05;15.05;;;;;;;-145.69;100.00;52442.41;5094969;28;20595;-81
2023/05/02 08:51:12;;;;;;;23.10;14.38;;;;;;;-145.69;100.00;52452.31;5094995;28;20217;-80
2023/05/02 08:53:40;;;;;;;27.80;15.05;;;;;;;-145.69;100.00;52408.75;5095253;28;20226;-81
2023/05/02 08:56:08;;;;;;;23.73;14.18;;;;;;;-145.69;100.00;52426.56;5095247;28;20205;-79
2023/05/02 08:58:35;;;;;;;20.17;13.35;;;;;;;-145.69;100.00;52444.38;5094625;28;20194;-82
2023/05/02 09:01:03;;;;;;;25.25;14.85;;;;;;;-145.69;100.00;52408.75;5095332;28;20194;-81
2023/05/02 09:03:31;;;;;;;21.83;13.30;;;;;;;-145.69;100.00;52416.66;5095057;28;20240;-82
2023/05/02 09:06:07;;;;;;;22.38;12.98;;;;;;;-145.69;100.00;52424.59;5095396;28;20267;-82
2023/05/02 09:08:35;;;;;;;22.60;14.25;;;;;;;-145.69;100.00;52392.91;5094930;28;20247;-81
2023/05/02 09:11:02;;;;;;;24.52;14.07;;;;;;;-145.69;100.00;52396.84;5094571;28;20194;-82
2023/05/02 09:13:30;;;;;;;23.15;13.45;;;;;;;-145.69;100.00;52408.75;5095010;28;20248;-81
2023/05/02 09:15:58;;;;;;;21.75;13.68;;;;;;;-145.69;100.00;52422.59;5094970;28;20595;-82
2023/05/02 09:18:26;;;;;;;21.52;12.75;;;;;;;-145.69;100.00;52438.44;5094679;28;20247;-78
2023/05/02 09:20:53;;;;;;;21.67;12.93;;;;;;;-145.69;100.00;52402.78;5094314;28;20199;-79
2023/05/02 09:23:20;;;;;;;20.77;12.43;;;;;;;-145.69;100.00;52434.47;5094085;28;20205;-78
2023/05/02 09:25:48;;;;;;;21.77;12.00;;;;;;;-145.69;100.00;52436.47;5094031;28;20202;-81
2023/05/02 09:28:14;;;;;;;24.83;12.98;;;;;;;-145.69;100.00;52482.00;5093154;28;20201;-79
2023/05/02 09:30:41;;;;;;;21.38;12.18;;;;;;;-145.69;100.00;52432.50;5094562;28;20221;-82
2023/05/02 09:33:07;;;;;;;20.77;12.23;;;;;;;-145.69;100.00;52412.69;5094687;28;20222;-82
2023/05/02 09:35:34;;;;;;;18.88;11.75;;;;;;;-145.69;100.00;52394.88;5080007;28;20194;-81
2023/05/02 09:38:00;;;;;;;27.45;12.35;;;;;;;-145.69;100.00;52412.69;5088098;28;20794;-79
2023/05/02 09:40:29;;;;;;;17.08;11.45;;;;;;;-145.69;100.00;52404.78;5092689;28;20561;-79
2023/05/02 09:42:57;;;;;;;19.92;11.90;;;;;;;-145.69;100.00;52424.59;5094506;28;20292;-80
2023/05/02 09:45:25;;;;;;;20.75;13.23;;;;;;;-145.69;100.00;52392.91;5093746;28;20653;-80
2023/05/02 09:47:52;;;;;;;20.65;11.90;;;;;;;-145.69;100.00;52412.69;5093578;28;20199;-81
2023/05/02 09:50:36;;;;;;;20.08;11.63;;;;;;;-145.69;100.00;52404.78;5093728;28;20716;-80
2023/05/02 09:53:04;;;;;;;18.33;11.23;;;;;;;-145.69;100.00;52402.78;5094116;28;20294;-82
2023/05/02 09:55:31;;;;;;;18.63;11.27;;;;;;;-145.69;100.00;52408.75;5094148;28;20194;-82
2023/05/02 09:57:59;;;;;;;16.90;10.50;;;;;;;-145.69;100.00;52392.91;5093826;28;20202;-82
2023/05/02 10:00:39;;;;;;;15.60;10.52;;;;;;;-145.69;100.00;52371.13;5094034;28;20202;-82
2023/05/02 10:03:09;;;;;;;14.93;8.82;;;;;;;-145.69;90.48;52351.31;5093812;28;20201;-82
2023/05/02 10:05:38;;;;;;;14.75;9.63;;;;;;;-145.69;88.93;52351.31;5094306;28;20210;-81
2023/05/02 10:08:06;;;;;;;14.02;9.52;;;;;;;-145.69;89.85;52400.81;5093552;28;20649;-84
2023/05/02 10:10:35;;;;;;;15.00;8.98;;;;;;;-145.69;91.03;52373.09;5093593;28;20198;-81
2023/05/02 10:13:04;;;;;;;14.32;9.07;;;;;;;-145.69;85.06;52365.16;5093374;28;20225;-76
2023/05/02 10:15:32;;;;;;;13.75;8.82;;;;;;;-145.69;92.58;52341.41;5093756;28;20198;-77
2023/05/02 10:18:00;;;;;;;23.92;11.40;;;;;;;-145.69;90.81;52381.00;5093239;28;20214;-82
2023/05/02 10:20:32;;;;;;;17.58;9.27;;;;;;;-145.69;82.18;52386.97;5093183;28;20209;-81
2023/05/02 10:23:00;;;;;;;16.42;8.90;;;;;;;-145.69;88.82;52353.28;5093593;28;20202;-79
2023/05/02 10:25:30;;;;;;;15.85;8.90;;;;;;;-145.69;83.22;52355.28;5093246;28;20229;-80
2023/05/02 10:27:58;;;;;;;16.45;8.88;;;;;;;-145.69;82.43;52351.31;5093217;28;20197;-79
2023/05/02 10:30:30;;;;;;;14.65;8.30;;;;;;;-145.69;75.74;52329.53;5093400;28;20206;-78
2023/05/02 10:33:00;;;;;;;22.13;9.35;;;;;;;-145.69;75.96;52357.25;5093451;28;20208;-81
2023/05/02 10:35:28;;;;;;;14.45;7.63;;;;;;;-145.69;78.94;52361.22;5093162;28;20201;-79
2023/05/02 10:37:55;;;;;;;15.15;8.43;;;;;;;-145.69;80.81;52365.16;5093003;28;20244;-80
2023/05/02 10:40:23;;;;;;;13.70;8.18;;;;;;;-145.69;77.19;52337.44;5092620;28;20245;-76
2023/05/02 10:42:51;;;;;;;14.30;8.13;;;;;;;-145.69;76.64;52361.22;5092867;28;20653;-80
2023/05/02 10:45:33;;;;;;;13.63;7.60;;;;;;;-145.69;70.86;52377.06;5093248;28;20208;-80
2023/05/02 10:48:22;;;;;;;13.00;7.82;;;;;;;-145.69;74.92;52369.13;5093162;28;20198;-80
2023/05/02 10:50:50;;;;;;;12.93;7.75;;;;;;;-145.69;80.22;52345.38;5093140;28;20194;-80
2023/05/02 10:53:24;;;;;;;11.80;7.57;;;;;;;-145.69;76.88;52321.59;5091737;28;20684;-81
2023/05/02 10:56:17;;;;;;;15.63;8.40;;;;;;;-145.69;70.93;52357.25;5092650;28;20202;-79
2023/05/02 10:58:45;;;;;;;13.32;7.78;;;;;;;-145.69;70.77;52355.28;5092818;28;20214;-80
2023/05/02 11:01:36;;;;;;;12.35;7.93;;;;;;;-145.69;74.08;52384.97;5092667;28;20704;-79
2023/05/02 11:04:04;;;;;;;16.52;8.63;;;;;;;-145.69;71.40;52373.09;5092249;28;20230;-80